Time;durP1;ratioP1;P1;durP2;ratioP2;P2;SDS_P1;SDS_P2;PMS_P1;PMS_P2;Temp;Humidity;BMP_temperature;BMP_pressure;BME280_temperature;BME280_humidity;BME280_pressure;Samples;Min_cycle;Max_cycle;Signal;HPM_P1;HPM_P2
2022/04/28 00:00:57;;;;;;;14.88;9.90;;;4.50;99.90;;;;;;4977713;28;20047;-87
2022/04/28 00:03:23;;;;;;;15.43;9.73;;;4.50;99.90;;;;;;4982168;28;20070;-87
2022/04/28 00:05:49;;;;;;;14.35;9.93;;;4.50;99.90;;;;;;4970368;28;20034;-87
2022/04/28 00:08:16;;;;;;;16.38;10.48;;;4.50;99.90;;;;;;4969825;28;20027;-86
2022/04/28 00:10:42;;;;;;;16.15;11.18;;;4.60;99.90;;;;;;4973512;28;20030;-86
2022/04/28 00:13:09;;;;;;;20.65;11.60;;;4.60;99.90;;;;;;4962735;28;20387;-82
2022/04/28 00:15:35;;;;;;;17.52;11.90;;;4.60;99.90;;;;;;4965522;28;20034;-82
2022/04/28 00:18:01;;;;;;;20.17;12.13;;;4.70;99.90;;;;;;4969095;28;20043;-82
2022/04/28 00:20:27;;;;;;;16.42;10.23;;;4.60;99.90;;;;;;4958927;28;20040;-82
2022/04/28 00:22:52;;;;;;;16.98;10.95;;;4.70;99.90;;;;;;4953301;28;20020;-82
2022/04/28 00:25:20;;;;;;;15.80;10.55;;;4.80;99.90;;;;;;4967774;28;20478;-82
2022/04/28 00:27:45;;;;;;;18.35;11.73;;;4.90;99.90;;;;;;4970152;28;20053;-82
2022/04/28 00:30:11;;;;;;;15.75;9.98;;;4.90;99.90;;;;;;4983227;28;20042;-87
2022/04/28 00:32:36;;;;;;;17.92;10.40;;;4.90;99.90;;;;;;4970183;28;20453;-87
2022/04/28 00:35:02;;;;;;;18.13;11.23;;;4.90;99.90;;;;;;4960041;28;20031;-87
2022/04/28 00:37:28;;;;;;;17.85;11.20;;;4.80;99.90;;;;;;4970317;28;20034;-87
2022/04/28 00:39:54;;;;;;;20.65;12.35;;;4.70;99.90;;;;;;4970442;28;20518;-87
2022/04/28 00:42:20;;;;;;;16.80;11.27;;;4.60;99.90;;;;;;4974487;28;20034;-87
2022/04/28 00:44:46;;;;;;;18.60;11.60;;;4.50;99.90;;;;;;4960178;28;20444;-87
2022/04/28 00:47:12;;;;;;;17.30;10.80;;;4.50;99.90;;;;;;4969941;28;20091;-87
2022/04/28 00:52:24;;;;;;;17.75;12.55;;;4.30;99.90;;;;;;4975234;28;20085;-82
2022/04/28 00:54:52;;;;;;;20.25;12.65;;;4.30;99.90;;;;;;4973323;28;20037;-82
2022/04/28 00:57:19;;;;;;;19.00;12.38;;;4.30;99.90;;;;;;4959902;28;20027;-82
2022/04/28 00:59:46;;;;;;;16.10;11.95;;;4.10;99.90;;;;;;4963498;28;20031;-82
2022/04/28 01:02:12;;;;;;;19.67;12.82;;;4.10;99.90;;;;;;4966897;28;20094;-82
2022/04/28 01:04:38;;;;;;;19.25;12.10;;;4.00;99.90;;;;;;4964628;28;20542;-82
2022/04/28 01:07:05;;;;;;;21.23;12.95;;;4.00;99.90;;;;;;4966442;28;20039;-82
2022/04/28 01:09:36;;;;;;;23.27;14.20;;;4.00;99.90;;;;;;4970143;28;20066;-82
2022/04/28 01:12:07;;;;;;;23.48;14.65;;;4.00;99.90;;;;;;4960405;28;20467;-82
2022/04/28 01:14:33;;;;;;;20.35;13.05;;;3.90;99.90;;;;;;4962669;28;20329;-82
2022/04/28 01:17:02;;;;;;;18.95;12.07;;;3.80;99.90;;;;;;4974106;28;20606;-82
2022/04/28 01:19:28;;;;;;;17.90;11.48;;;3.80;99.90;;;;;;4969768;28;20042;-82
2022/04/28 01:21:55;;;;;;;21.10;14.00;;;3.80;99.90;;;;;;4960934;28;20027;-82
2022/04/28 01:24:21;;;;;;;19.10;12.38;;;3.70;99.90;;;;;;4969900;28;20225;-82
2022/04/28 01:26:48;;;;;;;20.90;13.35;;;3.70;99.90;;;;;;4969721;28;20050;-82
2022/04/28 01:29:13;;;;;;;19.27;11.82;;;3.60;99.90;;;;;;4968468;28;20027;-82
2022/04/28 01:31:39;;;;;;;20.45;12.52;;;3.60;99.90;;;;;;4936581;28;20057;-82
2022/04/28 01:34:05;;;;;;;20.75;13.07;;;3.70;99.90;;;;;;4969454;28;20213;-82
2022/04/28 01:36:31;;;;;;;20.33;12.93;;;3.60;99.90;;;;;;4958819;28;20516;-82
2022/04/28 01:38:57;;;;;;;21.92;12.70;;;3.70;99.90;;;;;;4969310;28;20030;-81
2022/04/28 01:41:23;;;;;;;22.65;13.73;;;3.70;99.90;;;;;;4969569;28;20509;-82
2022/04/28 01:43:49;;;;;;;18.77;12.63;;;3.70;99.90;;;;;;4958187;28;20035;-87
2022/04/28 01:46:14;;;;;;;19.90;12.60;;;3.70;99.90;;;;;;4968877;28;20117;-87
2022/04/28 01:48:40;;;;;;;21.60;11.82;;;3.60;99.90;;;;;;4958876;28;20037;-82
2022/04/28 01:56:34;;;;;;;20.05;12.00;;;3.80;99.90;;;;;;4961691;28;20045;-82
2022/04/28 01:58:59;;;;;;;22.70;12.85;;;3.70;99.90;;;;;;4965193;28;20031;-82
2022/04/28 02:01:25;;;;;;;24.35;13.98;;;3.70;99.90;;;;;;4959629;28;20479;-82
2022/04/28 02:03:51;;;;;;;20.23;12.57;;;3.60;99.90;;;;;;4967509;28;20043;-82
2022/04/28 02:06:17;;;;;;;23.52;13.05;;;3.60;99.90;;;;;;4965862;28;20045;-82
2022/04/28 02:08:44;;;;;;;20.92;11.95;;;3.50;99.90;;;;;;4963095;28;20027;-82
2022/04/28 02:11:10;;;;;;;23.90;14.93;;;3.40;99.90;;;;;;4957214;28;20030;-82
2022/04/28 02:13:35;;;;;;;23.50;13.05;;;3.30;99.90;;;;;;4960293;28;20029;-82
2022/04/28 02:16:01;;;;;;;22.38;13.55;;;3.30;99.90;;;;;;4971928;28;20371;-87
2022/04/28 02:18:27;;;;;;;20.23;12.52;;;3.30;99.90;;;;;;4969912;28;20034;-87
2022/04/28 02:20:52;;;;;;;24.48;13.95;;;3.30;99.90;;;;;;4973101;28;20035;-87
2022/04/28 02:23:18;;;;;;;20.63;12.15;;;3.30;99.90;;;;;;4977696;28;20455;-87
2022/04/28 02:25:44;;;;;;;22.35;13.52;;;3.20;99.90;;;;;;4970708;28;20117;-87
2022/04/28 02:28:09;;;;;;;23.35;14.40;;;3.20;99.90;;;;;;4972974;28;20088;-87
2022/04/28 02:30:35;;;;;;;24.70;14.52;;;3.10;99.90;;;;;;4966413;28;20042;-87
2022/04/28 02:33:10;;;;;;;24.67;15.80;;;3.20;99.90;;;;;;4971022;28;20119;-87
2022/04/28 02:35:37;;;;;;;23.13;13.95;;;3.10;99.90;;;;;;4969626;28;20031;-87
2022/04/28 02:38:02;;;;;;;20.85;13.50;;;3.10;99.90;;;;;;4979141;28;20478;-87
2022/04/28 02:40:28;;;;;;;22.52;13.27;;;3.10;99.90;;;;;;4986736;28;20046;-87
2022/04/28 02:42:54;;;;;;;23.23;13.57;;;3.00;99.90;;;;;;4973095;28;20439;-87
2022/04/28 02:45:19;;;;;;;26.27;14.23;;;3.10;99.90;;;;;;4968328;28;20059;-87
2022/04/28 02:47:45;;;;;;;22.60;13.50;;;3.10;99.90;;;;;;4967167;28;20038;-87
2022/04/28 02:50:11;;;;;;;22.85;12.52;;;3.00;99.90;;;;;;4964911;28;20505;-87
2022/04/28 02:52:40;;;;;;;21.65;12.82;;;3.00;99.90;;;;;;4973131;28;20031;-82
2022/04/28 02:55:09;;;;;;;22.92;14.20;;;3.00;99.90;;;;;;4968641;28;20106;-82
2022/04/28 02:57:35;;;;;;;24.75;14.15;;;2.90;99.90;;;;;;4958585;28;20559;-82
2022/04/28 03:00:04;;;;;;;24.17;14.02;;;3.00;99.90;;;;;;4971873;28;20093;-82
2022/04/28 03:02:30;;;;;;;22.02;13.05;;;2.90;99.90;;;;;;4970996;28;20035;-82
2022/04/28 03:04:57;;;;;;;25.83;13.65;;;2.90;99.90;;;;;;4953664;28;20145;-82
2022/04/28 03:12:52;;;;;;;21.60;12.75;;;2.90;99.90;;;;;;4956488;28;20046;-82
2022/04/28 03:15:18;;;;;;;24.30;15.23;;;2.90;99.90;;;;;;4986255;28;20367;-82
2022/04/28 03:17:44;;;;;;;21.33;13.32;;;2.90;99.90;;;;;;4980326;28;20105;-82
2022/04/28 03:20:10;;;;;;;23.20;12.90;;;2.80;99.90;;;;;;4967768;28;20427;-82
2022/04/28 03:22:36;;;;;;;31.70;15.48;;;2.80;99.90;;;;;;4974193;28;20039;-82
2022/04/28 03:25:05;;;;;;;26.10;14.88;;;2.80;99.90;;;;;;4968378;28;20042;-87
2022/04/28 03:27:32;;;;;;;26.70;14.98;;;2.80;99.90;;;;;;4969634;28;20493;-82
2022/04/28 03:29:57;;;;;;;27.15;14.90;;;2.90;99.90;;;;;;4969186;28;20043;-87
2022/04/28 03:32:23;;;;;;;30.48;14.52;;;2.80;99.90;;;;;;4955543;28;20034;-87
2022/04/28 03:34:49;;;;;;;30.52;16.75;;;2.70;99.90;;;;;;4969916;28;20431;-87
2022/04/28 03:37:15;;;;;;;24.20;13.75;;;2.80;99.90;;;;;;4978205;28;20252;-87
2022/04/28 03:39:41;;;;;;;30.95;16.55;;;2.80;99.90;;;;;;4977985;28;20125;-87
2022/04/28 03:42:07;;;;;;;26.60;15.52;;;2.80;99.90;;;;;;4969800;28;20027;-82
2022/04/28 03:44:34;;;;;;;32.25;15.10;;;2.70;99.90;;;;;;4956025;28;20406;-82
2022/04/28 03:47:01;;;;;;;39.75;19.25;;;2.90;99.90;;;;;;4960873;28;20027;-82
2022/04/28 03:49:26;;;;;;;30.42;16.92;;;2.90;99.90;;;;;;4970808;28;20042;-82
2022/04/28 03:51:52;;;;;;;32.28;17.10;;;2.80;99.90;;;;;;4965043;28;20045;-82
2022/04/28 03:54:18;;;;;;;30.20;15.70;;;3.00;99.90;;;;;;4953164;28;20082;-82
2022/04/28 03:56:44;;;;;;;30.67;16.13;;;3.00;99.90;;;;;;4966316;28;20194;-82
2022/04/28 03:59:10;;;;;;;33.72;17.35;;;3.10;99.90;;;;;;4963547;28;20471;-82
2022/04/28 04:01:36;;;;;;;31.70;16.27;;;3.10;99.90;;;;;;4976700;28;20043;-82
2022/04/28 04:04:02;;;;;;;34.92;18.30;;;3.00;99.90;;;;;;4970090;28;20386;-82
2022/04/28 04:06:28;;;;;;;34.90;17.88;;;3.00;99.90;;;;;;4968871;28;20023;-82
2022/04/28 04:08:54;;;;;;;32.95;17.02;;;3.00;99.90;;;;;;4971072;28;20480;-82
2022/04/28 04:11:19;;;;;;;31.80;17.27;;;2.90;99.90;;;;;;4950856;28;20122;-87
2022/04/28 04:13:46;;;;;;;33.30;17.33;;;2.90;99.90;;;;;;4970037;28;20110;-82
2022/04/28 04:16:12;;;;;;;33.03;19.88;;;2.90;99.90;;;;;;4959900;28;20258;-82
2022/04/28 04:18:38;;;;;;;33.97;19.02;;;2.90;99.90;;;;;;4963609;28;20172;-83
2022/04/28 04:21:04;;;;;;;32.20;18.70;;;3.00;99.90;;;;;;4972362;28;20054;-86
2022/04/28 04:23:31;;;;;;;29.85;17.77;;;3.00;99.90;;;;;;4968243;28;20061;-87
2022/04/28 04:25:57;;;;;;;37.88;19.08;;;3.00;99.90;;;;;;4971249;28;20118;-82
2022/04/28 04:28:23;;;;;;;28.98;16.50;;;3.00;99.90;;;;;;4970201;28;20030;-86
2022/04/28 04:33:33;;;;;;;31.00;17.85;;;3.00;99.90;;;;;;4962020;28;20352;-87
2022/04/28 04:35:58;;;;;;;31.00;16.23;;;3.10;99.90;;;;;;4970623;28;20036;-86
2022/04/28 04:38:24;;;;;;;31.40;17.67;;;3.10;99.90;;;;;;4985476;28;20033;-88
2022/04/28 04:40:50;;;;;;;33.40;17.80;;;3.20;99.90;;;;;;4968751;28;20031;-85
2022/04/28 04:43:15;;;;;;;31.20;16.00;;;3.30;99.90;;;;;;4950615;28;20110;-85
2022/04/28 04:45:42;;;;;;;29.42;16.95;;;3.50;99.90;;;;;;4951750;29;20101;-86
2022/04/28 04:48:12;;;;;;;27.52;14.52;;;3.50;99.90;;;;;;4967669;28;20050;-86
2022/04/28 04:50:39;;;;;;;27.42;16.00;;;3.60;99.90;;;;;;4979920;28;20177;-86
2022/04/28 04:53:05;;;;;;;27.42;14.25;;;3.70;99.90;;;;;;4953198;28;20710;-86
2022/04/28 04:55:32;;;;;;;31.67;17.65;;;3.70;99.90;;;;;;4970096;28;20386;-86
2022/04/28 04:57:58;;;;;;;27.45;16.13;;;3.80;99.90;;;;;;4978884;28;20031;-86
2022/04/28 05:00:24;;;;;;;28.67;16.80;;;3.80;99.90;;;;;;4980405;28;20023;-87
2022/04/28 05:02:50;;;;;;;24.00;14.27;;;3.90;99.90;;;;;;4976783;28;20121;-86
2022/04/28 05:05:16;;;;;;;28.88;16.02;;;3.90;99.90;;;;;;4973992;28;20069;-82
2022/04/28 05:07:42;;;;;;;26.42;14.95;;;3.90;99.90;;;;;;4950396;28;20035;-83
2022/04/28 05:10:08;;;;;;;27.27;16.77;;;4.10;99.90;;;;;;4958393;28;20274;-83
2022/04/28 05:12:33;;;;;;;26.15;16.52;;;4.10;99.90;;;;;;4975529;28;20054;-84
2022/04/28 05:14:59;;;;;;;25.98;14.82;;;4.20;99.90;;;;;;4956649;28;20047;-84
2022/04/28 05:17:25;;;;;;;26.15;16.33;;;4.30;99.90;;;;;;4966986;28;20402;-83
2022/04/28 05:19:50;;;;;;;25.92;16.08;;;4.40;99.90;;;;;;4982096;28;20033;-85
2022/04/28 05:22:16;;;;;;;26.83;15.30;;;4.40;99.90;;;;;;4964897;28;20057;-84
2022/04/28 05:24:44;;;;;;;28.30;16.90;;;4.50;99.90;;;;;;4933984;28;20441;-84
2022/04/28 05:27:10;;;;;;;25.60;16.02;;;4.50;99.90;;;;;;4955327;28;20031;-84
2022/04/28 05:29:36;;;;;;;29.60;17.55;;;4.40;99.90;;;;;;4960165;28;20549;-83
2022/04/28 05:32:01;;;;;;;32.08;18.75;;;4.60;99.90;;;;;;4965526;28;20115;-83
2022/04/28 05:34:27;;;;;;;26.40;17.48;;;4.70;99.90;;;;;;4969476;28;20041;-83
2022/04/28 05:36:53;;;;;;;28.05;15.95;;;4.80;99.90;;;;;;4969311;28;20026;-83
2022/04/28 05:39:19;;;;;;;26.88;16.42;;;4.80;99.90;;;;;;4968338;28;20046;-83
2022/04/28 05:41:44;;;;;;;24.23;14.95;;;4.90;99.90;;;;;;4969721;28;20683;-83
2022/04/28 05:46:54;;;;;;;26.80;14.95;;;5.10;99.90;;;;;;4950740;29;20045;-86
2022/04/28 05:49:21;;;;;;;28.75;15.68;;;5.10;99.90;;;;;;4949214;28;20414;-86
2022/04/28 05:51:49;;;;;;;27.13;16.52;;;5.10;99.90;;;;;;4960471;28;20445;-87
2022/04/28 05:54:15;;;;;;;29.20;17.10;;;5.10;99.90;;;;;;4955203;28;20475;-86
2022/04/28 05:56:42;;;;;;;30.00;17.17;;;5.10;99.90;;;;;;4965358;28;20107;-86
2022/04/28 05:59:10;;;;;;;23.30;13.93;;;5.10;99.90;;;;;;4973457;28;20019;-86
2022/04/28 06:01:36;;;;;;;28.73;16.45;;;5.10;99.90;;;;;;4973331;28;20078;-86
2022/04/28 06:04:03;;;;;;;31.08;19.10;;;5.20;99.90;;;;;;4973625;28;20054;-84
2022/04/28 06:06:29;;;;;;;29.55;18.27;;;5.30;99.90;;;;;;4954792;29;20258;-85
2022/04/28 06:08:54;;;;;;;28.05;15.82;;;5.40;99.90;;;;;;4974058;28;20157;-85
2022/04/28 06:11:20;;;;;;;27.10;14.23;;;5.30;99.90;;;;;;4959238;28;20030;-85
2022/04/28 06:13:46;;;;;;;32.38;17.80;;;5.50;99.90;;;;;;4927107;29;20043;-83
2022/04/28 06:16:11;;;;;;;26.25;14.85;;;5.50;99.90;;;;;;4964393;28;20093;-82
2022/04/28 06:18:37;;;;;;;28.40;16.92;;;5.60;99.90;;;;;;4972125;28;20066;-83
2022/04/28 06:21:03;;;;;;;27.60;16.60;;;5.70;99.90;;;;;;4959256;28;20027;-83
2022/04/28 06:23:28;;;;;;;28.50;15.88;;;5.80;99.90;;;;;;4971411;28;20042;-83
2022/04/28 06:25:54;;;;;;;28.48;17.23;;;5.80;99.90;;;;;;4965582;28;20038;-83
2022/04/28 06:28:20;;;;;;;25.45;18.15;;;5.90;99.90;;;;;;4971974;28;20034;-83
2022/04/28 06:30:45;;;;;;;28.35;16.05;;;6.00;99.90;;;;;;4942873;28;20043;-83
2022/04/28 06:33:11;;;;;;;27.75;17.45;;;6.10;99.90;;;;;;4955006;28;20032;-82
2022/04/28 06:35:37;;;;;;;29.65;16.23;;;6.20;99.90;;;;;;4962491;28;20450;-85
2022/04/28 06:38:03;;;;;;;31.13;16.60;;;6.40;99.90;;;;;;4973939;28;20049;-86
2022/04/28 06:40:29;;;;;;;27.20;15.63;;;6.60;99.90;;;;;;4973237;28;20031;-83
2022/04/28 06:42:55;;;;;;;28.85;15.52;;;6.70;99.90;;;;;;4955782;28;20054;-83
2022/04/28 06:45:22;;;;;;;24.40;13.90;;;6.90;99.90;;;;;;4972531;28;20472;-82
2022/04/28 06:47:48;;;;;;;27.27;17.45;;;7.00;99.90;;;;;;4971355;28;20031;-82
2022/04/28 06:50:13;;;;;;;25.23;14.88;;;7.10;99.90;;;;;;4972136;28;20665;-83
2022/04/28 06:52:40;;;;;;;25.95;15.63;;;7.20;99.90;;;;;;4975816;28;20035;-83
2022/04/28 06:55:07;;;;;;;27.83;15.68;;;7.20;99.90;;;;;;4972221;28;20039;-83
2022/04/28 06:57:33;;;;;;;25.67;14.48;;;7.30;99.90;;;;;;4958956;28;20482;-86
2022/04/28 06:59:59;;;;;;;24.42;14.77;;;7.40;99.90;;;;;;4972157;28;20133;-86
2022/04/28 07:02:24;;;;;;;22.15;15.63;;;7.50;99.90;;;;;;4972214;28;20035;-86
2022/04/28 07:04:50;;;;;;;24.20;14.30;;;7.60;99.90;;;;;;4982222;28;20046;-86
2022/04/28 07:07:16;;;;;;;25.02;15.15;;;7.80;99.90;;;;;;4970916;28;20027;-82
2022/04/28 07:09:42;;;;;;;25.35;16.52;;;7.80;99.90;;;;;;4987101;28;20134;-83
2022/04/28 07:12:08;;;;;;;22.27;14.48;;;8.00;99.90;;;;;;4970933;28;20367;-83
2022/04/28 07:14:34;;;;;;;25.23;16.00;;;8.10;99.90;;;;;;4971039;28;20034;-82
2022/04/28 07:17:00;;;;;;;22.17;13.93;;;8.30;99.90;;;;;;4960476;28;20028;-83
2022/04/28 07:19:26;;;;;;;23.52;14.07;;;8.40;99.90;;;;;;4957936;28;20070;-82
2022/04/28 07:21:52;;;;;;;23.98;14.63;;;8.60;99.90;;;;;;4971818;28;20418;-82
2022/04/28 07:24:17;;;;;;;21.58;12.98;;;8.70;99.90;;;;;;4980887;28;20086;-83
2022/04/28 07:26:43;;;;;;;22.38;13.27;;;8.80;99.90;;;;;;4956212;28;20043;-82
2022/04/28 07:29:09;;;;;;;21.95;12.23;;;9.00;99.90;;;;;;4964876;28;20023;-82
2022/04/28 07:31:36;;;;;;;18.45;11.57;;;9.10;99.90;;;;;;4973720;28;20082;-82
2022/04/28 07:34:02;;;;;;;18.20;12.02;;;9.30;99.90;;;;;;4970636;28;20297;-83
2022/04/28 07:36:28;;;;;;;15.57;10.25;;;9.50;99.90;;;;;;4953870;28;20035;-83
2022/04/28 07:38:54;;;;;;;16.15;9.75;;;9.70;99.90;;;;;;4971307;28;20038;-83
2022/04/28 07:41:20;;;;;;;13.35;9.07;;;9.80;99.90;;;;;;4965110;28;20031;-83
2022/04/28 07:43:45;;;;;;;13.88;9.23;;;10.00;99.90;;;;;;4968083;28;20054;-83
2022/04/28 07:46:11;;;;;;;11.63;7.78;;;10.00;99.90;;;;;;4971343;28;20093;-83
2022/04/28 07:48:37;;;;;;;12.70;8.25;;;10.10;99.90;;;;;;4982024;28;20517;-83
2022/04/28 07:51:03;;;;;;;10.02;6.72;;;10.30;99.90;;;;;;4970610;28;20063;-83
2022/04/28 07:53:31;;;;;;;11.00;7.40;;;10.60;99.90;;;;;;4962811;28;20046;-83
2022/04/28 07:56:15;;;;;;;12.35;7.57;;;10.80;99.90;;;;;;4968240;28;20058;-82
2022/04/28 07:58:42;;;;;;;10.70;6.38;;;10.80;99.90;;;;;;4971614;28;20082;-83
2022/04/28 08:01:09;;;;;;;10.18;6.85;;;11.00;99.90;;;;;;4973046;28;20065;-83
2022/04/28 08:03:35;;;;;;;10.75;7.05;;;11.10;99.90;;;;;;4963236;28;20054;-83
2022/04/28 08:06:01;;;;;;;10.32;7.07;;;11.30;98.90;;;;;;4979174;28;20715;-83
2022/04/28 08:08:28;;;;;;;9.63;7.07;;;11.30;99.90;;;;;;4978641;28;20205;-83
2022/04/28 08:10:53;;;;;;;10.45;7.25;;;11.50;99.00;;;;;;4970851;28;20118;-83
2022/04/28 08:13:19;;;;;;;11.65;7.22;;;11.50;95.20;;;;;;4970468;28;20505;-83
2022/04/28 08:15:45;;;;;;;10.52;7.35;;;11.60;95.50;;;;;;4957929;28;20077;-83
2022/04/28 08:18:10;;;;;;;11.77;6.55;;;11.70;98.80;;;;;;4970197;28;20034;-83
2022/04/28 08:20:40;;;;;;;11.73;7.05;;;11.70;93.50;;;;;;4970695;28;20022;-83
2022/04/28 08:23:06;;;;;;;9.88;7.68;;;11.80;95.50;;;;;;4947121;28;20027;-83
2022/04/28 08:25:32;;;;;;;10.48;6.65;;;12.10;93.30;;;;;;4956673;28;20138;-83
2022/04/28 08:27:58;;;;;;;9.15;6.43;;;12.30;90.70;;;;;;4950731;28;20023;-82
2022/04/28 08:30:23;;;;;;;9.13;6.57;;;12.20;92.70;;;;;;4970262;28;20042;-83
2022/04/28 08:32:49;;;;;;;8.95;5.20;;;12.40;93.10;;;;;;4965790;28;20023;-83
2022/04/28 08:35:15;;;;;;;8.27;6.05;;;12.30;75.50;;;;;;4964722;28;20035;-83
2022/04/28 08:37:40;;;;;;;8.70;5.50;;;12.30;85.30;;;;;;4967315;28;20042;-83
2022/04/28 08:40:07;;;;;;;8.25;5.43;;;12.40;79.20;;;;;;4970630;28;20423;-83
2022/04/28 08:42:36;;;;;;;7.72;5.72;;;12.60;77.70;;;;;;4970439;28;20084;-83
2022/04/28 08:45:04;;;;;;;9.98;6.13;;;13.00;88.50;;;;;;4969046;28;20446;-83
2022/04/28 08:47:30;;;;;;;9.18;5.88;;;13.40;83.20;;;;;;4973481;28;20037;-83
2022/04/28 08:49:56;;;;;;;9.32;6.30;;;13.20;77.80;;;;;;4974199;28;20230;-83
2022/04/28 08:52:21;;;;;;;9.05;5.38;;;13.00;73.90;;;;;;4969074;28;20038;-83
2022/04/28 08:54:47;;;;;;;7.47;5.70;;;13.20;76.00;;;;;;4968740;28;20141;-83
2022/04/28 08:57:14;;;;;;;10.20;5.25;;;13.30;76.90;;;;;;4980742;28;20056;-83
2022/04/28 08:59:41;;;;;;;6.95;4.85;;;13.60;77.60;;;;;;4981652;28;20034;-83
2022/04/28 09:02:10;;;;;;;8.93;5.32;;;13.80;75.20;;;;;;4987926;28;20061;-83
2022/04/28 09:04:36;;;;;;;6.03;4.50;;;14.10;68.20;;;;;;4989348;28;20466;-83
2022/04/28 09:07:05;;;;;;;7.07;4.50;;;13.80;62.20;;;;;;4986412;28;20252;-83
2022/04/28 09:09:33;;;;;;;7.40;4.57;;;13.40;63.40;;;;;;4988791;28;20034;-83
2022/04/28 09:12:00;;;;;;;6.28;4.75;;;13.60;66.20;;;;;;4989257;28;20445;-83
2022/04/28 09:14:26;;;;;;;6.82;3.92;;;14.20;63.90;;;;;;4975316;28;20486;-83
2022/04/28 09:17:00;;;;;;;6.63;4.15;;;13.90;58.70;;;;;;4988339;28;20034;-83
2022/04/28 09:19:26;;;;;;;6.88;3.85;;;13.90;57.60;;;;;;4974110;28;20112;-83
2022/04/28 09:21:54;;;;;;;6.30;4.00;;;14.00;57.10;;;;;;4988173;28;20047;-83
2022/04/28 09:24:22;;;;;;;4.88;4.00;;;14.10;55.10;;;;;;4998093;28;20484;-83
2022/04/28 09:26:50;;;;;;;6.95;4.32;;;14.20;55.10;;;;;;4994921;28;20030;-83
2022/04/28 09:29:17;;;;;;;6.50;4.50;;;14.40;57.50;;;;;;4989785;28;20030;-83
2022/04/28 09:31:44;;;;;;;6.45;4.32;;;14.50;55.10;;;;;;4989483;28;20030;-83
2022/04/28 09:34:11;;;;;;;8.02;3.42;;;14.30;56.90;;;;;;4981968;28;20532;-83
2022/04/28 09:36:38;;;;;;;6.43;3.75;;;14.10;53.80;;;;;;4969995;28;20134;-84
2022/04/28 09:39:12;;;;;;;5.75;3.95;;;14.20;52.80;;;;;;4984627;28;20430;-83
2022/04/28 09:44:22;;;;;;;6.68;3.80;;;14.70;51.10;;;;;;4991675;28;20101;-83
2022/04/28 09:46:49;;;;;;;4.53;3.03;;;14.80;49.40;;;;;;4992791;28;20063;-87
2022/04/28 09:49:17;;;;;;;5.35;3.75;;;14.80;47.60;;;;;;4981034;28;20034;-87
2022/04/28 09:51:44;;;;;;;5.82;3.67;;;15.00;50.70;;;;;;4977012;28;20037;-82
2022/04/28 09:54:12;;;;;;;6.45;3.42;;;15.00;47.10;;;;;;4977887;28;20031;-85
2022/04/28 09:56:40;;;;;;;5.13;3.67;;;15.20;47.30;;;;;;4983340;28;20026;-82
2022/04/28 09:59:08;;;;;;;8.18;4.55;;;15.50;48.20;;;;;;4981029;28;20037;-82
2022/04/28 10:01:35;;;;;;;6.05;3.83;;;15.40;50.20;;;;;;4976886;28;20236;-83
2022/04/28 10:04:01;;;;;;;5.72;3.78;;;15.50;52.10;;;;;;4975990;28;20042;-84
2022/04/28 10:06:35;;;;;;;4.95;3.30;;;15.60;49.00;;;;;;4971799;28;20022;-83
2022/04/28 10:09:09;;;;;;;5.80;3.58;;;15.50;48.60;;;;;;4964146;28;20027;-83
2022/04/28 10:11:37;;;;;;;5.43;3.30;;;15.60;46.20;;;;;;4983666;28;20119;-83
2022/04/28 10:14:04;;;;;;;6.00;3.40;;;15.70;45.50;;;;;;4980574;28;20085;-83
2022/04/28 10:16:29;;;;;;;4.60;3.30;;;15.70;47.40;;;;;;4989564;28;20035;-83
2022/04/28 10:18:55;;;;;;;5.45;3.92;;;15.80;46.50;;;;;;4970269;28;20103;-83
2022/04/28 10:21:28;;;;;;;5.15;3.50;;;16.00;45.40;;;;;;4977619;28;20491;-84
2022/04/28 10:32:59;;;;;;;4.13;3.15;;;16.40;44.40;;;;;;4972535;28;20120;-82
2022/04/28 10:35:45;;;;;;;4.97;3.42;;;16.10;42.80;;;;;;4970930;28;20502;-83
2022/04/28 10:38:35;;;;;;;6.45;3.60;;;16.00;43.80;;;;;;4961275;28;20034;-87
2022/04/28 10:41:03;;;;;;;4.83;3.40;;;16.50;44.80;;;;;;4973059;28;20038;-86
2022/04/28 10:43:32;;;;;;;4.93;3.03;;;16.90;41.80;;;;;;4981256;28;20034;-87
2022/04/28 10:45:59;;;;;;;6.53;3.25;;;16.80;42.00;;;;;;4988618;28;20108;-87
2022/04/28 10:51:17;;;;;;;6.07;4.43;;;17.00;39.80;;;;;;4979294;28;20041;-88
2022/04/28 10:54:21;;;;;;;5.93;3.53;;;17.70;42.00;;;;;;4977346;28;21031;-89
2022/04/28 10:57:02;;;;;;;5.97;3.72;;;17.70;39.90;;;;;;4958831;28;20035;-89
2022/04/28 10:59:39;;;;;;;6.15;3.47;;;18.20;39.40;;;;;;4981538;28;20027;-88
2022/04/28 11:02:11;;;;;;;4.43;3.53;;;17.90;40.40;;;;;;4974918;28;20105;-89
2022/04/28 11:04:40;;;;;;;4.20;3.10;;;18.30;41.20;;;;;;4981901;28;20034;-88
2022/04/28 11:07:16;;;;;;;5.65;3.83;;;19.00;38.20;;;;;;4992166;28;20447;-88
2022/04/28 11:09:50;;;;;;;5.43;3.72;;;18.80;36.10;;;;;;4974361;28;20034;-88
2022/04/28 11:12:20;;;;;;;5.57;3.70;;;18.90;37.70;;;;;;4988133;28;20052;-90
2022/04/28 11:15:00;;;;;;;5.22;3.47;;;19.40;38.50;;;;;;4991070;28;20304;-88
2022/04/28 11:17:28;;;;;;;5.85;3.42;;;19.60;37.00;;;;;;4991408;28;20507;-88
2022/04/28 11:19:54;;;;;;;7.00;3.58;;;19.30;36.60;;;;;;4989257;28;20027;-89
2022/04/28 11:22:20;;;;;;;4.68;3.47;;;19.60;36.60;;;;;;4987523;28;20029;-89
2022/04/28 11:24:52;;;;;;;4.82;3.50;;;20.30;37.10;;;;;;4995117;28;20034;-85
2022/04/28 11:27:24;;;;;;;4.85;3.55;;;20.50;35.90;;;;;;5000814;28;20115;-86
2022/04/28 11:29:57;;;;;;;5.30;3.83;;;19.90;34.40;;;;;;4988173;28;20038;-89
2022/04/28 11:32:23;;;;;;;4.50;3.75;;;20.00;33.70;;;;;;4983351;28;20065;-89
2022/04/28 11:34:50;;;;;;;3.83;3.03;;;19.80;36.90;;;;;;4972425;28;20367;-89
2022/04/28 11:37:22;;;;;;;5.55;4.10;;;20.60;35.00;;;;;;4978645;28;20026;-88
2022/04/28 11:40:12;;;;;;;5.28;3.63;;;20.40;33.60;;;;;;4972485;28;20026;-88
2022/04/28 11:42:39;;;;;;;4.10;3.30;;;20.20;34.50;;;;;;4990674;28;20061;-89
2022/04/28 11:45:06;;;;;;;3.78;3.13;;;20.00;34.90;;;;;;4992544;28;20120;-88
2022/04/28 11:47:45;;;;;;;4.55;3.08;;;20.20;36.10;;;;;;4990653;28;20068;-88
2022/04/28 11:50:22;;;;;;;5.00;3.50;;;21.10;35.40;;;;;;4989534;28;20053;-87
2022/04/28 11:53:05;;;;;;;6.20;4.13;;;20.40;32.50;;;;;;4961415;28;20213;-87
2022/04/28 11:55:35;;;;;;;6.70;3.40;;;20.40;33.70;;;;;;4992792;28;20093;-87
2022/04/28 11:58:02;;;;;;;5.68;4.07;;;20.00;34.10;;;;;;4996143;28;20112;-87
2022/04/28 12:00:34;;;;;;;4.80;3.70;;;20.80;32.80;;;;;;4988378;28;20027;-86
2022/04/28 12:03:20;;;;;;;5.18;3.80;;;21.10;32.40;;;;;;4985191;28;20053;-86
2022/04/28 12:05:51;;;;;;;6.00;3.95;;;21.00;30.70;;;;;;4990561;28;20088;-86
2022/04/28 12:08:21;;;;;;;5.70;4.00;;;21.10;32.70;;;;;;4974092;28;20031;-86
2022/04/28 12:16:18;;;;;;;4.93;3.97;;;22.00;31.80;;;;;;4986197;28;20190;-86
2022/04/28 12:21:34;;;;;;;5.72;3.60;;;22.70;29.20;;;;;;4993069;28;20122;-86
2022/04/28 12:24:00;;;;;;;5.35;4.28;;;22.40;31.80;;;;;;4985024;28;20097;-86
2022/04/28 12:26:32;;;;;;;5.65;3.72;;;22.30;31.20;;;;;;4973781;28;20077;-86
2022/04/28 12:29:08;;;;;;;5.80;4.10;;;22.40;29.70;;;;;;4970899;28;20035;-85
2022/04/28 12:31:35;;;;;;;6.20;4.43;;;22.50;29.90;;;;;;4982642;28;20094;-85
2022/04/28 12:34:22;;;;;;;5.72;3.58;;;22.30;29.90;;;;;;4974091;28;20026;-85
2022/04/28 12:36:53;;;;;;;8.10;4.05;;;22.20;29.70;;;;;;4961259;28;20220;-86
2022/04/28 12:39:20;;;;;;;6.65;4.07;;;22.40;30.30;;;;;;4990710;28;20105;-85
2022/04/28 12:41:47;;;;;;;4.63;3.72;;;22.60;29.40;;;;;;4979899;28;20081;-86
2022/04/28 12:44:13;;;;;;;5.38;4.18;;;23.10;30.00;;;;;;5001681;28;20047;-86
2022/04/28 12:46:44;;;;;;;5.70;3.97;;;22.50;28.50;;;;;;5004896;28;20038;-85
2022/04/28 12:49:11;;;;;;;6.13;4.07;;;23.20;28.60;;;;;;4993411;28;20096;-85
2022/04/28 12:51:42;;;;;;;8.30;4.18;;;22.50;29.70;;;;;;4986361;28;20035;-86
2022/04/28 12:54:18;;;;;;;5.13;3.90;;;23.70;28.30;;;;;;4993009;28;20121;-86
2022/04/28 12:56:46;;;;;;;6.43;4.40;;;24.00;27.50;;;;;;4965836;28;20513;-86
2022/04/28 12:59:17;;;;;;;5.28;3.70;;;23.70;28.60;;;;;;4975852;28;20034;-86
2022/04/28 13:01:46;;;;;;;5.13;4.13;;;24.50;28.30;;;;;;4975338;28;20456;-86
2022/04/28 13:04:15;;;;;;;5.97;4.95;;;24.30;27.30;;;;;;4985668;28;20792;-85
2022/04/28 13:06:45;;;;;;;4.65;4.03;;;23.40;28.30;;;;;;4989553;28;20045;-85
2022/04/28 13:09:13;;;;;;;5.63;4.60;;;23.40;28.90;;;;;;4973304;28;20034;-85
2022/04/28 13:11:41;;;;;;;5.53;3.80;;;24.00;26.60;;;;;;4980352;28;20025;-86
2022/04/28 13:14:10;;;;;;;5.68;4.35;;;24.40;27.40;;;;;;4993268;28;20121;-85
2022/04/28 13:16:37;;;;;;;5.72;4.68;;;23.70;27.90;;;;;;4994011;28;20030;-85
2022/04/28 13:19:04;;;;;;;5.72;4.35;;;23.80;28.70;;;;;;4989113;28;20553;-85
2022/04/28 13:21:30;;;;;;;5.25;4.30;;;23.80;27.90;;;;;;4986676;28;20034;-85
2022/04/28 13:23:57;;;;;;;6.85;5.25;;;24.20;27.00;;;;;;4989305;28;20033;-86